sensor_id;sensor_type;location;lat;lon;timestamp;temperature;humidity
7447;DHT22;3765;47.962;7.952;2023-10-09T00:00:14;12.50;69.30
7447;DHT22;3765;47.962;7.952;2023-10-09T00:03:02;12.50;69.30
7447;DHT22;3765;47.962;7.952;2023-10-09T00:05:31;12.50;69.30
7447;DHT22;3765;47.962;7.952;2023-10-09T00:08:14;12.40;69.30
7447;DHT22;3765;47.962;7.952;2023-10-09T00:10:48;12.40;69.40
7447;DHT22;3765;47.962;7.952;2023-10-09T00:13:22;12.30;69.50
7447;DHT22;3765;47.962;7.952;2023-10-09T00:15:55;12.30;69.60
7447;DHT22;3765;47.962;7.952;2023-10-09T00:18:27;12.40;69.60
7447;DHT22;3765;47.962;7.952;2023-10-09T00:21:01;12.40;69.60
7447;DHT22;3765;47.962;7.952;2023-10-09T00:23:40;12.40;69.60
7447;DHT22;3765;47.962;7.952;2023-10-09T00:26:09;12.40;69.60
7447;DHT22;3765;47.962;7.952;2023-10-09T00:28:41;12.40;69.70
7447;DHT22;3765;47.962;7.952;2023-10-09T00:31:11;12.40;69.70
7447;DHT22;3765;47.962;7.952;2023-10-09T00:33:43;12.40;69.70
7447;DHT22;3765;47.962;7.952;2023-10-09T00:36:11;12.40;69.60
7447;DHT22;3765;47.962;7.952;2023-10-09T00:38:44;12.30;69.70
7447;DHT22;3765;47.962;7.952;2023-10-09T00:41:17;12.30;69.80
7447;DHT22;3765;47.962;7.952;2023-10-09T00:43:51;12.30;69.80
7447;DHT22;3765;47.962;7.952;2023-10-09T00:46:21;12.30;69.80
7447;DHT22;3765;47.962;7.952;2023-10-09T00:48:58;12.30;69.90
7447;DHT22;3765;47.962;7.952;2023-10-09T00:51:29;12.20;70.00
7447;DHT22;3765;47.962;7.952;2023-10-09T00:54:05;12.30;70.10
7447;DHT22;3765;47.962;7.952;2023-10-09T00:56:42;12.20;70.10
7447;DHT22;3765;47.962;7.952;2023-10-09T00:59:21;12.20;70.10
7447;DHT22;3765;47.962;7.952;2023-10-09T01:01:51;12.10;70.30
7447;DHT22;3765;47.962;7.952;2023-10-09T01:04:25;12.20;70.30
7447;DHT22;3765;47.962;7.952;2023-10-09T01:06:56;12.10;70.30
7447;DHT22;3765;47.962;7.952;2023-10-09T01:09:34;12.10;70.40
7447;DHT22;3765;47.962;7.952;2023-10-09T01:12:05;12.10;70.50
7447;DHT22;3765;47.962;7.952;2023-10-09T01:14:36;12.10;70.60
7447;DHT22;3765;47.962;7.952;2023-10-09T01:17:04;12.10;70.50
7447;DHT22;3765;47.962;7.952;2023-10-09T01:19:55;12.10;70.50
7447;DHT22;3765;47.962;7.952;2023-10-09T01:22:25;12.20;70.60
7447;DHT22;3765;47.962;7.952;2023-10-09T01:24:55;12.20;70.50
7447;DHT22;3765;47.962;7.952;2023-10-09T01:27:23;12.20;70.50
7447;DHT22;3765;47.962;7.952;2023-10-09T01:29:59;12.10;70.60
7447;DHT22;3765;47.962;7.952;2023-10-09T01:32:28;12.10;70.60
7447;DHT22;3765;47.962;7.952;2023-10-09T01:34:56;12.10;70.70
7447;DHT22;3765;47.962;7.952;2023-10-09T01:37:25;12.00;70.70
7447;DHT22;3765;47.962;7.952;2023-10-09T01:39:58;12.00;70.90
7447;DHT22;3765;47.962;7.952;2023-10-09T01:42:47;11.90;70.90
7447;DHT22;3765;47.962;7.952;2023-10-09T01:45:16;11.90;71.10
7447;DHT22;3765;47.962;7.952;2023-10-09T01:47:54;11.90;71.10
7447;DHT22;3765;47.962;7.952;2023-10-09T01:50:23;11.90;71.20
7447;DHT22;3765;47.962;7.952;2023-10-09T01:52:58;11.90;71.20
7447;DHT22;3765;47.962;7.952;2023-10-09T01:55:30;11.90;71.30
7447;DHT22;3765;47.962;7.952;2023-10-09T01:58:03;11.90;71.20
7447;DHT22;3765;47.962;7.952;2023-10-09T02:00:33;11.90;71.20
7447;DHT22;3765;47.962;7.952;2023-10-09T02:03:11;11.90;71.20
7447;DHT22;3765;47.962;7.952;2023-10-09T02:05:51;11.80;71.30
7447;DHT22;3765;47.962;7.952;2023-10-09T02:08:19;11.80;71.30
7447;DHT22;3765;47.962;7.952;2023-10-09T02:10:55;11.80;71.40
7447;DHT22;3765;47.962;7.952;2023-10-09T02:13:23;11.80;71.50
7447;DHT22;3765;47.962;7.952;2023-10-09T02:15:57;11.80;71.60
7447;DHT22;3765;47.962;7.952;2023-10-09T02:18:40;11.80;71.70
7447;DHT22;3765;47.962;7.952;2023-10-09T02:21:20;11.80;71.70
7447;DHT22;3765;47.962;7.952;2023-10-09T02:24:01;11.80;71.80
7447;DHT22;3765;47.962;7.952;2023-10-09T02:26:34;11.80;71.80
7447;DHT22;3765;47.962;7.952;2023-10-09T02:29:30;11.70;71.80
7447;DHT22;3765;47.962;7.952;2023-10-09T02:32:02;11.80;71.90
7447;DHT22;3765;47.962;7.952;2023-10-09T02:34:40;11.80;71.80
7447;DHT22;3765;47.962;7.952;2023-10-09T02:37:13;11.80;71.80
7447;DHT22;3765;47.962;7.952;2023-10-09T02:39:41;11.80;71.80
7447;DHT22;3765;47.962;7.952;2023-10-09T02:42:15;11.60;71.90
7447;DHT22;3765;47.962;7.952;2023-10-09T02:44:52;11.60;72.00
7447;DHT22;3765;47.962;7.952;2023-10-09T02:47:22;11.70;72.00
7447;DHT22;3765;47.962;7.952;2023-10-09T02:49:56;11.80;72.00
7447;DHT22;3765;47.962;7.952;2023-10-09T02:52:33;11.70;72.00
7447;DHT22;3765;47.962;7.952;2023-10-09T02:55:08;11.70;72.00
7447;DHT22;3765;47.962;7.952;2023-10-09T02:57:42;11.80;72.00
7447;DHT22;3765;47.962;7.952;2023-10-09T03:00:12;11.80;72.00
7447;DHT22;3765;47.962;7.952;2023-10-09T03:02:46;11.80;72.00
7447;DHT22;3765;47.962;7.952;2023-10-09T03:05:17;11.80;72.10
7447;DHT22;3765;47.962;7.952;2023-10-09T03:07:47;11.70;72.10
7447;DHT22;3765;47.962;7.952;2023-10-09T03:10:16;11.70;72.30
7447;DHT22;3765;47.962;7.952;2023-10-09T03:12:45;11.60;72.30
7447;DHT22;3765;47.962;7.952;2023-10-09T03:15:18;11.60;72.20
7447;DHT22;3765;47.962;7.952;2023-10-09T03:17:47;11.50;72.40
7447;DHT22;3765;47.962;7.952;2023-10-09T03:20:16;11.50;72.50
7447;DHT22;3765;47.962;7.952;2023-10-09T03:22:45;11.60;72.50
7447;DHT22;3765;47.962;7.952;2023-10-09T03:25:15;11.60;72.50
7447;DHT22;3765;47.962;7.952;2023-10-09T03:27:46;11.50;72.50
7447;DHT22;3765;47.962;7.952;2023-10-09T03:30:15;11.50;72.50
7447;DHT22;3765;47.962;7.952;2023-10-09T03:32:50;11.50;72.40
7447;DHT22;3765;47.962;7.952;2023-10-09T03:35:19;11.50;72.60
7447;DHT22;3765;47.962;7.952;2023-10-09T03:37:54;11.40;72.60
7447;DHT22;3765;47.962;7.952;2023-10-09T03:40:27;11.40;72.70
7447;DHT22;3765;47.962;7.952;2023-10-09T03:42:57;11.50;72.70
7447;DHT22;3765;47.962;7.952;2023-10-09T03:45:25;11.50;72.70
7447;DHT22;3765;47.962;7.952;2023-10-09T03:47:54;11.40;72.70
7447;DHT22;3765;47.962;7.952;2023-10-09T03:50:29;11.50;72.80
7447;DHT22;3765;47.962;7.952;2023-10-09T03:53:04;11.50;72.80
7447;DHT22;3765;47.962;7.952;2023-10-09T03:55:35;11.50;72.90
7447;DHT22;3765;47.962;7.952;2023-10-09T03:58:07;11.50;72.90
7447;DHT22;3765;47.962;7.952;2023-10-09T04:00:39;11.50;72.90
7447;DHT22;3765;47.962;7.952;2023-10-09T04:03:13;11.50;72.80
7447;DHT22;3765;47.962;7.952;2023-10-09T04:05:42;11.50;72.90
7447;DHT22;3765;47.962;7.952;2023-10-09T04:08:12;11.50;72.80
7447;DHT22;3765;47.962;7.952;2023-10-09T04:10:46;11.50;72.80
7447;DHT22;3765;47.962;7.952;2023-10-09T04:13:26;11.50;72.90
7447;DHT22;3765;47.962;7.952;2023-10-09T04:16:01;11.50;72.90
7447;DHT22;3765;47.962;7.952;2023-10-09T04:18:36;11.50;72.80
7447;DHT22;3765;47.962;7.952;2023-10-09T04:21:07;11.50;72.80
7447;DHT22;3765;47.962;7.952;2023-10-09T04:23:46;11.50;72.80
7447;DHT22;3765;47.962;7.952;2023-10-09T04:26:36;11.60;72.80
7447;DHT22;3765;47.962;7.952;2023-10-09T04:29:08;11.60;72.70
7447;DHT22;3765;47.962;7.952;2023-10-09T04:31:37;11.60;72.80
7447;DHT22;3765;47.962;7.952;2023-10-09T04:34:05;11.70;72.80
7447;DHT22;3765;47.962;7.952;2023-10-09T04:36:47;11.60;72.80
7447;DHT22;3765;47.962;7.952;2023-10-09T04:39:18;11.50;72.80
7447;DHT22;3765;47.962;7.952;2023-10-09T04:42:04;11.50;72.80
7447;DHT22;3765;47.962;7.952;2023-10-09T04:44:50;11.50;73.00
7447;DHT22;3765;47.962;7.952;2023-10-09T04:47:46;11.60;72.90
7447;DHT22;3765;47.962;7.952;2023-10-09T04:50:16;11.60;72.90
7447;DHT22;3765;47.962;7.952;2023-10-09T04:52:58;11.60;72.90
7447;DHT22;3765;47.962;7.952;2023-10-09T04:55:48;11.50;72.90
7447;DHT22;3765;47.962;7.952;2023-10-09T04:58:22;11.50;72.90
7447;DHT22;3765;47.962;7.952;2023-10-09T05:00:55;11.50;72.90
7447;DHT22;3765;47.962;7.952;2023-10-09T05:03:41;11.50;72.90
7447;DHT22;3765;47.962;7.952;2023-10-09T05:06:13;11.60;73.00
7447;DHT22;3765;47.962;7.952;2023-10-09T05:09:10;11.50;73.00
7447;DHT22;3765;47.962;7.952;2023-10-09T05:11:41;11.50;73.10
7447;DHT22;3765;47.962;7.952;2023-10-09T05:14:23;11.40;73.10
7447;DHT22;3765;47.962;7.952;2023-10-09T05:17:08;11.40;73.20
7447;DHT22;3765;47.962;7.952;2023-10-09T05:19:43;11.40;73.30
7447;DHT22;3765;47.962;7.952;2023-10-09T05:22:22;11.40;73.40
7447;DHT22;3765;47.962;7.952;2023-10-09T05:25:04;11.40;73.50
7447;DHT22;3765;47.962;7.952;2023-10-09T05:28:03;11.30;73.50
7447;DHT22;3765;47.962;7.952;2023-10-09T05:30:50;11.30;73.60
7447;DHT22;3765;47.962;7.952;2023-10-09T05:33:30;11.30;73.70
7447;DHT22;3765;47.962;7.952;2023-10-09T05:36:02;11.30;73.60
7447;DHT22;3765;47.962;7.952;2023-10-09T05:38:44;11.30;73.60
7447;DHT22;3765;47.962;7.952;2023-10-09T05:41:15;11.30;73.60
7447;DHT22;3765;47.962;7.952;2023-10-09T05:44:00;11.40;73.60
7447;DHT22;3765;47.962;7.952;2023-10-09T05:46:46;11.40;73.60
7447;DHT22;3765;47.962;7.952;2023-10-09T05:49:38;11.50;73.60
7447;DHT22;3765;47.962;7.952;2023-10-09T05:52:13;11.60;73.50
7447;DHT22;3765;47.962;7.952;2023-10-09T05:54:58;11.60;73.50
7447;DHT22;3765;47.962;7.952;2023-10-09T05:57:52;11.70;73.40
7447;DHT22;3765;47.962;7.952;2023-10-09T06:00:38;11.80;73.30
7447;DHT22;3765;47.962;7.952;2023-10-09T06:03:24;11.80;73.20
7447;DHT22;3765;47.962;7.952;2023-10-09T06:05:55;11.80;73.10
7447;DHT22;3765;47.962;7.952;2023-10-09T06:08:32;11.90;73.00
7447;DHT22;3765;47.962;7.952;2023-10-09T06:11:14;11.90;72.80
7447;DHT22;3765;47.962;7.952;2023-10-09T06:13:58;12.00;72.80
7447;DHT22;3765;47.962;7.952;2023-10-09T06:16:31;12.00;72.80
7447;DHT22;3765;47.962;7.952;2023-10-09T06:19:09;12.10;72.70
7447;DHT22;3765;47.962;7.952;2023-10-09T06:21:41;12.20;72.60
7447;DHT22;3765;47.962;7.952;2023-10-09T06:24:24;12.30;72.40
7447;DHT22;3765;47.962;7.952;2023-10-09T06:26:53;12.30;72.50
7447;DHT22;3765;47.962;7.952;2023-10-09T06:29:38;12.30;72.50
7447;DHT22;3765;47.962;7.952;2023-10-09T06:32:18;12.30;72.50
7447;DHT22;3765;47.962;7.952;2023-10-09T06:35:02;12.40;72.40
7447;DHT22;3765;47.962;7.952;2023-10-09T06:37:50;12.50;72.40
7447;DHT22;3765;47.962;7.952;2023-10-09T06:40:37;12.60;72.20
7447;DHT22;3765;47.962;7.952;2023-10-09T06:43:23;12.70;72.20
7447;DHT22;3765;47.962;7.952;2023-10-09T06:45:56;12.80;72.00
7447;DHT22;3765;47.962;7.952;2023-10-09T06:48:46;12.90;71.90
7447;DHT22;3765;47.962;7.952;2023-10-09T06:51:23;12.90;71.80
7447;DHT22;3765;47.962;7.952;2023-10-09T06:54:11;12.90;71.80
7447;DHT22;3765;47.962;7.952;2023-10-09T06:56:43;12.90;71.80
7447;DHT22;3765;47.962;7.952;2023-10-09T06:59:40;13.00;71.90
7447;DHT22;3765;47.962;7.952;2023-10-09T07:02:25;13.00;72.00
7447;DHT22;3765;47.962;7.952;2023-10-09T07:04:54;13.00;72.20
7447;DHT22;3765;47.962;7.952;2023-10-09T07:07:40;13.00;72.20
7447;DHT22;3765;47.962;7.952;2023-10-09T07:10:23;13.10;72.40
7447;DHT22;3765;47.962;7.952;2023-10-09T07:12:55;13.10;72.30
7447;DHT22;3765;47.962;7.952;2023-10-09T07:15:24;13.20;72.50
7447;DHT22;3765;47.962;7.952;2023-10-09T07:18:10;13.30;72.50
7447;DHT22;3765;47.962;7.952;2023-10-09T07:20:50;13.30;72.50
7447;DHT22;3765;47.962;7.952;2023-10-09T07:23:35;13.40;72.50
7447;DHT22;3765;47.962;7.952;2023-10-09T07:26:16;13.50;72.30
7447;DHT22;3765;47.962;7.952;2023-10-09T07:28:50;13.60;72.30
7447;DHT22;3765;47.962;7.952;2023-10-09T07:31:27;13.80;72.10
7447;DHT22;3765;47.962;7.952;2023-10-09T07:34:07;13.80;72.00
7447;DHT22;3765;47.962;7.952;2023-10-09T07:36:49;14.00;72.00
7447;DHT22;3765;47.962;7.952;2023-10-09T07:39:23;14.20;71.90
7447;DHT22;3765;47.962;7.952;2023-10-09T07:42:04;14.20;71.70
7447;DHT22;3765;47.962;7.952;2023-10-09T07:44:47;14.30;71.40
7447;DHT22;3765;47.962;7.952;2023-10-09T07:47:21;14.40;71.20
7447;DHT22;3765;47.962;7.952;2023-10-09T07:50:10;14.50;71.00
7447;DHT22;3765;47.962;7.952;2023-10-09T07:52:39;14.50;70.90
7447;DHT22;3765;47.962;7.952;2023-10-09T07:55:12;14.60;70.90
7447;DHT22;3765;47.962;7.952;2023-10-09T07:57:55;14.70;70.70
7447;DHT22;3765;47.962;7.952;2023-10-09T08:00:23;14.80;70.70
7447;DHT22;3765;47.962;7.952;2023-10-09T08:03:04;14.80;70.60
7447;DHT22;3765;47.962;7.952;2023-10-09T08:05:51;14.90;70.60
7447;DHT22;3765;47.962;7.952;2023-10-09T08:08:34;15.00;70.60
7447;DHT22;3765;47.962;7.952;2023-10-09T08:11:28;15.00;70.60
7447;DHT22;3765;47.962;7.952;2023-10-09T08:14:23;15.00;70.70
7447;DHT22;3765;47.962;7.952;2023-10-09T08:17:06;15.10;70.70
7447;DHT22;3765;47.962;7.952;2023-10-09T08:19:41;15.10;70.60
7447;DHT22;3765;47.962;7.952;2023-10-09T08:22:27;15.30;70.80
7447;DHT22;3765;47.962;7.952;2023-10-09T08:25:17;15.30;70.70
7447;DHT22;3765;47.962;7.952;2023-10-09T08:27:56;15.40;70.80
7447;DHT22;3765;47.962;7.952;2023-10-09T08:30:26;15.40;70.80
7447;DHT22;3765;47.962;7.952;2023-10-09T08:33:08;15.50;70.90
7447;DHT22;3765;47.962;7.952;2023-10-09T08:35:57;15.60;70.80
7447;DHT22;3765;47.962;7.952;2023-10-09T08:38:32;15.60;70.80
7447;DHT22;3765;47.962;7.952;2023-10-09T08:41:08;15.70;70.70
7447;DHT22;3765;47.962;7.952;2023-10-09T08:43:52;15.80;70.90
7447;DHT22;3765;47.962;7.952;2023-10-09T08:46:23;15.80;70.90
7447;DHT22;3765;47.962;7.952;2023-10-09T08:48:55;15.80;70.90
7447;DHT22;3765;47.962;7.952;2023-10-09T08:51:24;16.00;71.00
7447;DHT22;3765;47.962;7.952;2023-10-09T08:53:53;16.20;71.10
7447;DHT22;3765;47.962;7.952;2023-10-09T08:56:22;16.30;71.00
7447;DHT22;3765;47.962;7.952;2023-10-09T08:58:51;16.50;71.00
7447;DHT22;3765;47.962;7.952;2023-10-09T09:01:22;16.90;70.80
7447;DHT22;3765;47.962;7.952;2023-10-09T09:03:53;17.20;70.50
7447;DHT22;3765;47.962;7.952;2023-10-09T09:06:23;17.50;70.20
7447;DHT22;3765;47.962;7.952;2023-10-09T09:08:52;17.90;69.70
7447;DHT22;3765;47.962;7.952;2023-10-09T09:11:26;18.20;69.30
7447;DHT22;3765;47.962;7.952;2023-10-09T09:14:03;18.50;68.90
7447;DHT22;3765;47.962;7.952;2023-10-09T09:16:35;18.70;68.50
7447;DHT22;3765;47.962;7.952;2023-10-09T09:19:05;18.90;68.20
7447;DHT22;3765;47.962;7.952;2023-10-09T09:21:49;18.90;67.90
7447;DHT22;3765;47.962;7.952;2023-10-09T09:24:22;19.00;67.40
7447;DHT22;3765;47.962;7.952;2023-10-09T09:27:01;19.10;66.80
7447;DHT22;3765;47.962;7.952;2023-10-09T09:29:40;19.20;66.10
7447;DHT22;3765;47.962;7.952;2023-10-09T09:32:11;19.40;65.70
7447;DHT22;3765;47.962;7.952;2023-10-09T09:34:48;19.60;65.30
7447;DHT22;3765;47.962;7.952;2023-10-09T09:37:23;19.80;64.70
7447;DHT22;3765;47.962;7.952;2023-10-09T09:39:57;20.00;64.30
7447;DHT22;3765;47.962;7.952;2023-10-09T09:42:28;20.20;63.50
7447;DHT22;3765;47.962;7.952;2023-10-09T09:45:01;20.40;63.20
7447;DHT22;3765;47.962;7.952;2023-10-09T09:47:33;20.70;63.00
7447;DHT22;3765;47.962;7.952;2023-10-09T09:50:06;21.10;62.50
7447;DHT22;3765;47.962;7.952;2023-10-09T09:52:40;21.30;61.90
7447;DHT22;3765;47.962;7.952;2023-10-09T09:55:10;21.70;61.10
7447;DHT22;3765;47.962;7.952;2023-10-09T09:57:51;21.90;60.50
7447;DHT22;3765;47.962;7.952;2023-10-09T10:00:21;22.10;59.80
7447;DHT22;3765;47.962;7.952;2023-10-09T10:03:07;22.30;59.10
7447;DHT22;3765;47.962;7.952;2023-10-09T10:05:38;22.40;58.20
7447;DHT22;3765;47.962;7.952;2023-10-09T10:08:09;22.50;57.50
7447;DHT22;3765;47.962;7.952;2023-10-09T10:10:41;22.70;56.90
7447;DHT22;3765;47.962;7.952;2023-10-09T10:13:56;22.80;56.80
7447;DHT22;3765;47.962;7.952;2023-10-09T10:16:32;23.00;56.40
7447;DHT22;3765;47.962;7.952;2023-10-09T10:19:05;23.10;55.40
7447;DHT22;3765;47.962;7.952;2023-10-09T10:21:49;23.10;55.40
7447;DHT22;3765;47.962;7.952;2023-10-09T10:24:41;23.10;55.70
7447;DHT22;3765;47.962;7.952;2023-10-09T10:27:22;23.20;55.90
7447;DHT22;3765;47.962;7.952;2023-10-09T10:30:27;23.10;56.10
7447;DHT22;3765;47.962;7.952;2023-10-09T10:33:01;23.00;55.80
7447;DHT22;3765;47.962;7.952;2023-10-09T10:35:45;23.00;55.10
7447;DHT22;3765;47.962;7.952;2023-10-09T10:38:26;23.10;54.70
7447;DHT22;3765;47.962;7.952;2023-10-09T10:41:15;23.30;54.60
7447;DHT22;3765;47.962;7.952;2023-10-09T10:43:45;23.70;53.80
7447;DHT22;3765;47.962;7.952;2023-10-09T10:46:23;23.80;53.40
7447;DHT22;3765;47.962;7.952;2023-10-09T10:49:02;23.80;53.10
7447;DHT22;3765;47.962;7.952;2023-10-09T10:51:43;23.70;52.80
7447;DHT22;3765;47.962;7.952;2023-10-09T10:54:23;23.70;52.60
7447;DHT22;3765;47.962;7.952;2023-10-09T10:57:20;23.60;52.70
7447;DHT22;3765;47.962;7.952;2023-10-09T10:59:57;23.60;52.80
7447;DHT22;3765;47.962;7.952;2023-10-09T11:02:44;23.80;53.00
7447;DHT22;3765;47.962;7.952;2023-10-09T11:05:15;23.90;52.60
7447;DHT22;3765;47.962;7.952;2023-10-09T11:07:58;24.00;52.70
7447;DHT22;3765;47.962;7.952;2023-10-09T11:10:28;24.10;52.50
7447;DHT22;3765;47.962;7.952;2023-10-09T11:12:59;24.20;52.50
7447;DHT22;3765;47.962;7.952;2023-10-09T11:15:44;24.30;52.30
7447;DHT22;3765;47.962;7.952;2023-10-09T11:18:15;24.20;52.00
7447;DHT22;3765;47.962;7.952;2023-10-09T11:20:49;24.20;51.70
7447;DHT22;3765;47.962;7.952;2023-10-09T11:23:39;24.30;51.90
7447;DHT22;3765;47.962;7.952;2023-10-09T11:26:20;24.30;51.20
7447;DHT22;3765;47.962;7.952;2023-10-09T11:29:09;24.40;51.10
7447;DHT22;3765;47.962;7.952;2023-10-09T11:32:08;24.70;50.50
7447;DHT22;3765;47.962;7.952;2023-10-09T11:34:44;24.90;50.20
7447;DHT22;3765;47.962;7.952;2023-10-09T11:37:20;25.10;49.60
7447;DHT22;3765;47.962;7.952;2023-10-09T11:40:07;25.30;49.30
7447;DHT22;3765;47.962;7.952;2023-10-09T11:42:49;25.40;48.90
7447;DHT22;3765;47.962;7.952;2023-10-09T11:45:21;25.80;48.70
7447;DHT22;3765;47.962;7.952;2023-10-09T11:47:52;26.10;48.30
7447;DHT22;3765;47.962;7.952;2023-10-09T11:50:39;26.40;47.90
7447;DHT22;3765;47.962;7.952;2023-10-09T11:53:10;26.50;47.00
7447;DHT22;3765;47.962;7.952;2023-10-09T11:56:01;26.60;46.70
7447;DHT22;3765;47.962;7.952;2023-10-09T11:58:29;26.70;46.10
7447;DHT22;3765;47.962;7.952;2023-10-09T12:00:58;26.80;46.20
7447;DHT22;3765;47.962;7.952;2023-10-09T12:03:31;26.60;45.60
7447;DHT22;3765;47.962;7.952;2023-10-09T12:06:01;26.30;45.30
7447;DHT22;3765;47.962;7.952;2023-10-09T12:08:33;26.20;45.50
7447;DHT22;3765;47.962;7.952;2023-10-09T12:11:03;26.10;45.30
7447;DHT22;3765;47.962;7.952;2023-10-09T12:13:35;26.20;45.20
7447;DHT22;3765;47.962;7.952;2023-10-09T12:16:06;26.20;45.10
7447;DHT22;3765;47.962;7.952;2023-10-09T12:18:37;26.10;44.90
7447;DHT22;3765;47.962;7.952;2023-10-09T12:21:06;26.20;44.70
7447;DHT22;3765;47.962;7.952;2023-10-09T12:23:35;26.10;44.80
7447;DHT22;3765;47.962;7.952;2023-10-09T12:26:05;26.20;44.60
7447;DHT22;3765;47.962;7.952;2023-10-09T12:28:41;26.10;44.50
7447;DHT22;3765;47.962;7.952;2023-10-09T12:31:13;26.10;44.70
7447;DHT22;3765;47.962;7.952;2023-10-09T12:33:42;26.10;44.80
7447;DHT22;3765;47.962;7.952;2023-10-09T12:36:12;26.10;44.80
7447;DHT22;3765;47.962;7.952;2023-10-09T12:38:48;26.00;44.70
7447;DHT22;3765;47.962;7.952;2023-10-09T12:41:21;26.00;44.80
7447;DHT22;3765;47.962;7.952;2023-10-09T12:43:55;26.10;44.70
7447;DHT22;3765;47.962;7.952;2023-10-09T12:46:25;26.20;44.70
7447;DHT22;3765;47.962;7.952;2023-10-09T12:48:55;26.20;44.50
7447;DHT22;3765;47.962;7.952;2023-10-09T12:51:24;26.20;44.30
7447;DHT22;3765;47.962;7.952;2023-10-09T12:53:57;26.10;44.50
7447;DHT22;3765;47.962;7.952;2023-10-09T12:56:30;26.20;44.50
7447;DHT22;3765;47.962;7.952;2023-10-09T12:59:06;26.40;44.20
7447;DHT22;3765;47.962;7.952;2023-10-09T13:01:42;26.50;44.40
7447;DHT22;3765;47.962;7.952;2023-10-09T13:04:11;26.40;44.40
7447;DHT22;3765;47.962;7.952;2023-10-09T13:06:43;26.20;44.60
7447;DHT22;3765;47.962;7.952;2023-10-09T13:09:14;26.20;45.00
7447;DHT22;3765;47.962;7.952;2023-10-09T13:11:44;26.20;45.20
7447;DHT22;3765;47.962;7.952;2023-10-09T13:14:15;26.20;45.00
7447;DHT22;3765;47.962;7.952;2023-10-09T13:16:49;26.20;44.90
7447;DHT22;3765;47.962;7.952;2023-10-09T13:19:19;26.20;45.20
7447;DHT22;3765;47.962;7.952;2023-10-09T13:21:51;26.20;45.40
7447;DHT22;3765;47.962;7.952;2023-10-09T13:24:20;26.20;45.70
7447;DHT22;3765;47.962;7.952;2023-10-09T13:26:58;26.30;45.60
7447;DHT22;3765;47.962;7.952;2023-10-09T13:29:27;26.40;45.40
7447;DHT22;3765;47.962;7.952;2023-10-09T13:32:01;26.50;45.60
7447;DHT22;3765;47.962;7.952;2023-10-09T13:34:40;26.40;45.70
7447;DHT22;3765;47.962;7.952;2023-10-09T13:37:12;26.50;45.90
7447;DHT22;3765;47.962;7.952;2023-10-09T13:39:46;26.30;45.90
7447;DHT22;3765;47.962;7.952;2023-10-09T13:42:21;26.20;46.00
7447;DHT22;3765;47.962;7.952;2023-10-09T13:44:52;26.00;46.00
7447;DHT22;3765;47.962;7.952;2023-10-09T13:47:22;26.00;46.20
7447;DHT22;3765;47.962;7.952;2023-10-09T13:49:58;26.10;46.40
7447;DHT22;3765;47.962;7.952;2023-10-09T13:52:27;26.10;46.50
7447;DHT22;3765;47.962;7.952;2023-10-09T13:54:58;25.90;46.90
7447;DHT22;3765;47.962;7.952;2023-10-09T13:57:43;25.80;47.10
7447;DHT22;3765;47.962;7.952;2023-10-09T14:00:13;25.50;47.80
7447;DHT22;3765;47.962;7.952;2023-10-09T14:02:45;25.50;48.10
7447;DHT22;3765;47.962;7.952;2023-10-09T14:05:14;25.50;48.50
7447;DHT22;3765;47.962;7.952;2023-10-09T14:07:42;25.40;49.00
7447;DHT22;3765;47.962;7.952;2023-10-09T14:10:11;25.40;49.60
7447;DHT22;3765;47.962;7.952;2023-10-09T14:12:46;25.50;50.10
7447;DHT22;3765;47.962;7.952;2023-10-09T14:15:20;25.50;50.40
7447;DHT22;3765;47.962;7.952;2023-10-09T14:17:49;25.50;50.70
7447;DHT22;3765;47.962;7.952;2023-10-09T14:20:23;25.40;50.90
7447;DHT22;3765;47.962;7.952;2023-10-09T14:22:59;25.40;50.80
7447;DHT22;3765;47.962;7.952;2023-10-09T14:25:34;25.40;50.90
7447;DHT22;3765;47.962;7.952;2023-10-09T14:28:06;25.30;51.10
7447;DHT22;3765;47.962;7.952;2023-10-09T14:30:35;25.20;51.50
7447;DHT22;3765;47.962;7.952;2023-10-09T14:33:09;25.20;51.60
7447;DHT22;3765;47.962;7.952;2023-10-09T14:35:40;25.20;51.90
7447;DHT22;3765;47.962;7.952;2023-10-09T14:38:09;25.20;52.40
7447;DHT22;3765;47.962;7.952;2023-10-09T14:40:42;25.20;52.50
7447;DHT22;3765;47.962;7.952;2023-10-09T14:43:12;25.20;52.80
7447;DHT22;3765;47.962;7.952;2023-10-09T14:45:47;25.30;52.90
7447;DHT22;3765;47.962;7.952;2023-10-09T14:48:16;25.20;53.00
7447;DHT22;3765;47.962;7.952;2023-10-09T14:50:49;25.10;53.50
7447;DHT22;3765;47.962;7.952;2023-10-09T14:53:19;25.00;53.80
7447;DHT22;3765;47.962;7.952;2023-10-09T14:55:54;25.00;54.10
7447;DHT22;3765;47.962;7.952;2023-10-09T14:58:24;25.00;53.70
7447;DHT22;3765;47.962;7.952;2023-10-09T15:00:52;24.80;53.90
7447;DHT22;3765;47.962;7.952;2023-10-09T15:03:21;24.70;54.50
7447;DHT22;3765;47.962;7.952;2023-10-09T15:05:49;24.60;55.10
7447;DHT22;3765;47.962;7.952;2023-10-09T15:08:18;24.50;55.40
7447;DHT22;3765;47.962;7.952;2023-10-09T15:10:47;24.70;54.90
7447;DHT22;3765;47.962;7.952;2023-10-09T15:13:15;24.70;54.70
7447;DHT22;3765;47.962;7.952;2023-10-09T15:15:45;24.60;54.80
7447;DHT22;3765;47.962;7.952;2023-10-09T15:18:18;24.50;54.90
7447;DHT22;3765;47.962;7.952;2023-10-09T15:20:49;24.40;55.10
7447;DHT22;3765;47.962;7.952;2023-10-09T15:23:18;24.30;55.40
7447;DHT22;3765;47.962;7.952;2023-10-09T15:25:47;24.30;55.10
7447;DHT22;3765;47.962;7.952;2023-10-09T15:28:19;24.20;55.50
7447;DHT22;3765;47.962;7.952;2023-10-09T15:30:49;24.20;55.40
7447;DHT22;3765;47.962;7.952;2023-10-09T15:33:18;24.10;55.60
7447;DHT22;3765;47.962;7.952;2023-10-09T15:35:47;24.00;55.60
7447;DHT22;3765;47.962;7.952;2023-10-09T15:38:16;23.90;55.70
7447;DHT22;3765;47.962;7.952;2023-10-09T15:40:46;23.80;56.20
7447;DHT22;3765;47.962;7.952;2023-10-09T15:43:15;23.50;56.30
7447;DHT22;3765;47.962;7.952;2023-10-09T15:45:44;23.30;56.70
7447;DHT22;3765;47.962;7.952;2023-10-09T15:48:16;23.30;57.20
7447;DHT22;3765;47.962;7.952;2023-10-09T15:50:48;23.20;57.60
7447;DHT22;3765;47.962;7.952;2023-10-09T15:53:20;23.10;57.90
7447;DHT22;3765;47.962;7.952;2023-10-09T15:55:48;23.10;58.20
7447;DHT22;3765;47.962;7.952;2023-10-09T15:58:19;23.00;58.40
7447;DHT22;3765;47.962;7.952;2023-10-09T16:00:47;22.80;58.50
7447;DHT22;3765;47.962;7.952;2023-10-09T16:03:17;22.80;58.70
7447;DHT22;3765;47.962;7.952;2023-10-09T16:05:46;22.70;58.90
7447;DHT22;3765;47.962;7.952;2023-10-09T16:08:15;22.60;59.10
7447;DHT22;3765;47.962;7.952;2023-10-09T16:10:46;22.50;59.10
7447;DHT22;3765;47.962;7.952;2023-10-09T16:13:15;22.40;59.20
7447;DHT22;3765;47.962;7.952;2023-10-09T16:15:44;22.20;59.50
7447;DHT22;3765;47.962;7.952;2023-10-09T16:18:12;22.10;59.80
7447;DHT22;3765;47.962;7.952;2023-10-09T16:20:42;21.90;60.10
7447;DHT22;3765;47.962;7.952;2023-10-09T16:23:10;21.80;60.30
7447;DHT22;3765;47.962;7.952;2023-10-09T16:25:39;21.70;60.50
7447;DHT22;3765;47.962;7.952;2023-10-09T16:28:08;21.60;60.80
7447;DHT22;3765;47.962;7.952;2023-10-09T16:30:36;21.40;60.90
7447;DHT22;3765;47.962;7.952;2023-10-09T16:33:04;21.30;61.10
7447;DHT22;3765;47.962;7.952;2023-10-09T16:35:33;21.30;61.20
7447;DHT22;3765;47.962;7.952;2023-10-09T16:38:06;21.20;61.30
7447;DHT22;3765;47.962;7.952;2023-10-09T16:40:39;21.10;61.50
7447;DHT22;3765;47.962;7.952;2023-10-09T16:43:14;20.90;61.60
7447;DHT22;3765;47.962;7.952;2023-10-09T16:45:44;20.80;61.70
7447;DHT22;3765;47.962;7.952;2023-10-09T16:48:12;20.80;61.80
7447;DHT22;3765;47.962;7.952;2023-10-09T16:50:43;20.70;61.90
7447;DHT22;3765;47.962;7.952;2023-10-09T16:53:15;20.60;62.00